Time,TemperatureF,DewpointF,PressureIn,WindDirection,WindDirectionDegrees,WindSpeedMPH,WindSpeedGustMPH,Humidity,HourlyPrecipIn,Conditions,Clouds,dailyrainin,SoftwareType,DateUTC
2013-02-05 00:07:00,51.6,47.0,30.08,NNE,13,2.0,2.0,84,0.00,,,0.00,weatherlink.com 1.10,2013-02-05 05:07:00,
2013-02-05 00:22:00,51.5,47.0,30.08,NNE,18,2.0,2.0,84,0.00,,,0.00,weatherlink.com 1.10,2013-02-05 05:22:00,
2013-02-05 00:37:00,51.4,46.0,30.08,North,11,0.0,0.0,83,0.00,,,0.00,weatherlink.com 1.10,2013-02-05 05:37:00,
2013-02-05 00:52:00,51.2,47.0,30.07,NE,40,0.0,0.0,84,0.00,,,0.00,weatherlink.com 1.10,2013-02-05 05:52:00,
2013-02-05 01:07:00,50.9,47.0,30.07,NE,51,0.0,0.0,85,0.00,,,0.00,weatherlink.com 1.10,2013-02-05 06:07:00,
2013-02-05 01:22:00,50.9,47.0,30.07,ENE,75,0.0,0.0,85,0.00,,,0.00,weatherlink.com 1.10,2013-02-05 06:22:00,
2013-02-05 01:37:00,51.0,46.0,30.07,ESE,103,0.0,0.0,84,0.00,,,0.00,weatherlink.com 1.10,2013-02-05 06:37:00,
2013-02-05 01:52:00,50.6,46.0,30.06,ENE,72,0.0,1.0,85,0.00,,,0.00,weatherlink.com 1.10,2013-02-05 06:52:00,
2013-02-05 02:07:00,50.2,46.0,30.05,East,79,1.0,2.0,85,0.00,,,0.00,weatherlink.com 1.10,2013-02-05 07:07:00,
2013-02-05 02:22:00,49.9,46.0,30.05,ENE,68,1.0,2.0,86,0.00,,,0.00,weatherlink.com 1.10,2013-02-05 07:22:00,
2013-02-05 02:37:00,49.9,46.0,30.05,ENE,72,1.0,2.0,86,0.00,,,0.00,weatherlink.com 1.10,2013-02-05 07:37:00,
2013-02-05 02:52:00,49.5,45.0,30.05,East,85,0.0,0.0,85,0.00,,,0.00,weatherlink.com 1.10,2013-02-05 07:52:00,
2013-02-05 03:07:00,49.0,45.0,30.04,East,83,0.0,0.0,85,0.00,,,0.00,weatherlink.com 1.10,2013-02-05 08:07:00,
2013-02-05 03:22:00,48.6,45.0,30.04,ENE,78,0.0,0.0,87,0.00,,,0.00,weatherlink.com 1.10,2013-02-05 08:22:00,
2013-02-05 03:37:00,48.6,45.0,30.04,East,84,0.0,0.0,87,0.00,,,0.00,weatherlink.com 1.10,2013-02-05 08:37:00,
2013-02-05 03:52:00,48.3,45.0,30.04,East,93,0.0,0.0,87,0.00,,,0.00,weatherlink.com 1.10,2013-02-05 08:52:00,
2013-02-05 04:07:00,48.1,44.0,30.04,ENE,68,0.0,0.0,87,0.00,,,0.00,weatherlink.com 1.10,2013-02-05 09:07:00,
2013-02-05 04:22:00,48.5,44.0,30.04,East,84,0.0,0.0,85,0.00,,,0.00,weatherlink.com 1.10,2013-02-05 09:22:00,
2013-02-05 04:37:00,48.7,44.0,30.03,NE,56,0.0,0.0,84,0.00,,,0.00,weatherlink.com 1.10,2013-02-05 09:37:00,
2013-02-05 04:52:00,48.7,44.0,30.03,ENE,77,0.0,0.0,83,0.00,,,0.00,weatherlink.com 1.10,2013-02-05 09:52:00,
2013-02-05 05:07:00,48.5,44.0,30.03,ENE,72,0.0,0.0,84,0.00,,,0.00,weatherlink.com 1.10,2013-02-05 10:07:00,
2013-02-05 05:22:00,48.2,44.0,30.03,ENE,72,0.0,0.0,84,0.00,,,0.00,weatherlink.com 1.10,2013-02-05 10:22:00,
2013-02-05 05:37:00,48.2,44.0,30.03,ENE,72,0.0,0.0,85,0.00,,,0.00,weatherlink.com 1.10,2013-02-05 10:37:00,
2013-02-05 05:52:00,48.3,44.0,30.03,ENE,72,0.0,0.0,85,0.00,,,0.00,weatherlink.com 1.10,2013-02-05 10:52:00,
2013-02-05 06:07:00,48.3,44.0,30.03,East,91,0.0,0.0,86,0.00,,,0.00,weatherlink.com 1.10,2013-02-05 11:07:00,
2013-02-05 06:22:00,48.5,45.0,30.03,East,91,0.0,0.0,86,0.00,,,0.00,weatherlink.com 1.10,2013-02-05 11:22:00,
2013-02-05 06:37:00,48.5,45.0,30.04,SE,131,0.0,0.0,87,0.00,,,0.00,weatherlink.com 1.10,2013-02-05 11:37:00,
2013-02-05 06:52:00,50.0,46.0,30.03,SSE,148,0.0,2.0,86,0.00,,,0.00,weatherlink.com 1.10,2013-02-05 11:52:00,
2013-02-05 07:07:00,51.0,46.0,30.04,ENE,72,0.0,1.0,83,0.00,,,0.00,weatherlink.com 1.10,2013-02-05 12:07:00,
2013-02-05 07:22:00,50.3,45.0,30.04,ENE,63,0.0,0.0,81,0.00,,,0.00,weatherlink.com 1.10,2013-02-05 12:22:00,
2013-02-05 07:37:00,50.1,46.0,30.05,ESE,118,0.0,0.0,84,0.00,,,0.00,weatherlink.com 1.10,2013-02-05 12:37:00,
2013-02-05 07:52:00,51.1,46.0,30.05,ENE,58,0.0,0.0,84,0.00,,,0.00,weatherlink.com 1.10,2013-02-05 12:52:00,
2013-02-05 08:07:00,52.8,48.0,30.05,ENE,75,1.0,3.0,84,0.00,,,0.00,weatherlink.com 1.10,2013-02-05 13:07:00,
2013-02-05 08:23:00,55.9,50.0,30.06,East,93,0.0,2.0,80,0.00,,,0.00,weatherlink.com 1.10,2013-02-05 13:23:00,
2013-02-05 08:38:00,59.7,51.0,30.06,ESE,105,0.0,1.0,74,0.00,,,0.00,weatherlink.com 1.10,2013-02-05 13:38:00,
2013-02-05 08:53:00,62.6,51.0,30.06,SSE,149,0.0,3.0,65,0.00,,,0.00,weatherlink.com 1.10,2013-02-05 13:53:00,
2013-02-05 09:08:00,65.6,51.0,30.06,ENE,77,2.0,3.0,59,0.00,,,0.00,weatherlink.com 1.10,2013-02-05 14:08:00,
2013-02-05 09:23:00,67.3,51.0,30.07,ENE,68,0.0,4.0,56,0.00,,,0.00,weatherlink.com 1.10,2013-02-05 14:23:00,
2013-02-05 09:38:00,68.9,51.0,30.08,ESE,104,4.0,5.0,54,0.00,,,0.00,weatherlink.com 1.10,2013-02-05 14:38:00,
2013-02-05 09:53:00,70.7,52.0,30.09,East,81,1.0,4.0,51,0.00,,,0.00,weatherlink.com 1.10,2013-02-05 14:53:00,
2013-02-05 10:08:00,71.2,53.0,30.08,SE,136,3.0,8.0,52,0.00,,,0.00,weatherlink.com 1.10,2013-02-05 15:08:00,
2013-02-05 10:23:00,72.0,53.0,30.08,SSE,166,5.0,7.0,51,0.00,,,0.00,weatherlink.com 1.10,2013-02-05 15:23:00,
2013-02-05 10:38:00,72.8,52.0,30.08,SSE,166,5.0,7.0,49,0.00,,,0.00,weatherlink.com 1.10,2013-02-05 15:38:00,
2013-02-05 10:53:00,73.2,53.0,30.08,SSE,162,1.0,8.0,49,0.00,,,0.00,weatherlink.com 1.10,2013-02-05 15:53:00,
2013-02-05 11:08:00,74.0,54.0,30.08,SE,124,3.0,8.0,49,0.00,,,0.00,weatherlink.com 1.10,2013-02-05 16:08:00,
2013-02-05 11:23:00,74.5,53.0,30.08,SSE,149,3.0,7.0,48,0.00,,,0.00,weatherlink.com 1.10,2013-02-05 16:23:00,
2013-02-05 11:38:00,75.1,53.0,30.07,SE,132,3.0,9.0,46,0.00,,,0.00,weatherlink.com 1.10,2013-02-05 16:38:00,
2013-02-05 11:53:00,75.7,54.0,30.07,ESE,120,1.0,6.0,47,0.00,,,0.00,weatherlink.com 1.10,2013-02-05 16:53:00,
2013-02-05 12:08:00,76.6,54.0,30.07,SW,216,5.0,6.0,45,0.00,,,0.00,weatherlink.com 1.10,2013-02-05 17:08:00,
2013-02-05 12:23:00,76.7,54.0,30.06,SW,218,2.0,10.0,45,0.00,,,0.00,weatherlink.com 1.10,2013-02-05 17:23:00,
2013-02-05 12:38:00,76.7,54.0,30.06,South,189,1.0,9.0,46,0.00,,,0.00,weatherlink.com 1.10,2013-02-05 17:38:00,
2013-02-05 12:53:00,77.2,55.0,30.05,ENE,67,2.0,7.0,46,0.00,,,0.00,weatherlink.com 1.10,2013-02-05 17:53:00,
2013-02-05 13:08:00,76.9,54.0,30.04,SSW,211,2.0,8.0,45,0.00,,,0.00,weatherlink.com 1.10,2013-02-05 18:08:00,
2013-02-05 13:23:00,77.0,55.0,30.04,WSW,255,3.0,6.0,46,0.00,,,0.00,weatherlink.com 1.10,2013-02-05 18:23:00,
2013-02-05 13:38:00,77.3,55.0,30.03,West,273,6.0,9.0,46,0.00,,,0.00,weatherlink.com 1.10,2013-02-05 18:38:00,
2013-02-05 13:53:00,76.7,55.0,30.02,WSW,241,2.0,9.0,48,0.00,,,0.00,weatherlink.com 1.10,2013-02-05 18:53:00,
2013-02-05 14:08:00,77.3,55.0,30.01,South,172,6.0,11.0,47,0.00,,,0.00,weatherlink.com 1.10,2013-02-05 19:08:00,
2013-02-05 14:24:00,77.0,56.0,30.01,SSW,194,5.0,7.0,48,0.00,,,0.00,weatherlink.com 1.10,2013-02-05 19:24:00,
2013-02-05 14:39:00,77.2,56.0,30.01,SW,218,10.0,12.0,48,0.00,,,0.00,weatherlink.com 1.10,2013-02-05 19:39:00,
2013-02-05 14:54:00,77.0,56.0,30.01,WNW,293,1.0,8.0,49,0.00,,,0.00,weatherlink.com 1.10,2013-02-05 19:54:00,
2013-02-05 15:09:00,76.9,57.0,30.00,WSW,248,6.0,7.0,50,0.00,,,0.00,weatherlink.com 1.10,2013-02-05 20:09:00,
2013-02-05 15:24:00,77.0,57.0,30.00,South,180,7.0,10.0,50,0.00,,,0.00,weatherlink.com 1.10,2013-02-05 20:24:00,
2013-02-05 15:39:00,77.1,56.0,30.00,South,180,4.0,10.0,49,0.00,,,0.00,weatherlink.com 1.10,2013-02-05 20:39:00,
2013-02-05 15:54:00,76.9,57.0,30.00,South,181,5.0,8.0,50,0.00,,,0.00,weatherlink.com 1.10,2013-02-05 20:54:00,
2013-02-05 16:09:00,77.4,58.0,30.00,SSW,210,7.0,8.0,51,0.00,,,0.00,weatherlink.com 1.10,2013-02-05 21:09:00,
2013-02-05 16:24:00,76.8,57.0,30.00,South,188,7.0,8.0,50,0.00,,,0.00,weatherlink.com 1.10,2013-02-05 21:24:00,
2013-02-05 16:39:00,76.2,57.0,30.00,SSW,211,4.0,10.0,52,0.00,,,0.00,weatherlink.com 1.10,2013-02-05 21:39:00,
2013-02-05 16:54:00,75.7,57.0,30.00,SW,229,6.0,7.0,52,0.00,,,0.00,weatherlink.com 1.10,2013-02-05 21:54:00,
2013-02-05 17:09:00,75.4,57.0,30.00,South,188,1.0,7.0,53,0.00,,,0.00,weatherlink.com 1.10,2013-02-05 22:09:00,
2013-02-05 17:24:00,74.9,56.0,30.00,SW,233,4.0,6.0,53,0.00,,,0.00,weatherlink.com 1.10,2013-02-05 22:24:00,
2013-02-05 17:39:00,73.9,57.0,30.00,SW,219,3.0,6.0,55,0.00,,,0.00,weatherlink.com 1.10,2013-02-05 22:39:00,
2013-02-05 17:54:00,72.9,56.0,30.00,SSW,195,2.0,4.0,56,0.00,,,0.00,weatherlink.com 1.10,2013-02-05 22:54:00,
2013-02-05 18:09:00,71.3,56.0,30.01,SSW,210,0.0,3.0,59,0.00,,,0.00,weatherlink.com 1.10,2013-02-05 23:09:00,
2013-02-05 18:24:00,69.7,56.0,30.01,SSW,211,0.0,0.0,62,0.00,,,0.00,weatherlink.com 1.10,2013-02-05 23:24:00,
2013-02-05 18:39:00,67.8,56.0,30.01,SSW,211,0.0,0.0,65,0.00,,,0.00,weatherlink.com 1.10,2013-02-05 23:39:00,
2013-02-05 18:54:00,66.3,55.0,30.01,SSW,211,0.0,0.0,68,0.00,,,0.00,weatherlink.com 1.10,2013-02-05 23:54:00,
2013-02-05 19:09:00,65.5,56.0,30.02,SSW,211,0.0,0.0,72,0.00,,,0.00,weatherlink.com 1.10,2013-02-06 00:09:00,
2013-02-05 19:24:00,65.1,57.0,30.02,SSW,211,0.0,0.0,74,0.00,,,0.00,weatherlink.com 1.10,2013-02-06 00:24:00,
2013-02-05 19:39:00,64.3,56.0,30.02,SSW,212,0.0,0.0,75,0.00,,,0.00,weatherlink.com 1.10,2013-02-06 00:39:00,
2013-02-05 19:54:00,63.8,56.0,30.02,SSW,211,0.0,0.0,77,0.00,,,0.00,weatherlink.com 1.10,2013-02-06 00:54:00,
2013-02-05 20:09:00,63.3,56.0,30.03,SSW,211,0.0,1.0,78,0.00,,,0.00,weatherlink.com 1.10,2013-02-06 01:09:00,
2013-02-05 20:24:00,62.7,56.0,30.03,SSW,211,0.0,0.0,79,0.00,,,0.00,weatherlink.com 1.10,2013-02-06 01:24:00,
2013-02-05 20:39:00,62.1,56.0,30.04,SSW,211,0.0,0.0,81,0.00,,,0.00,weatherlink.com 1.10,2013-02-06 01:39:00,
2013-02-05 20:54:00,62.6,57.0,30.04,SSW,211,0.0,0.0,83,0.00,,,0.00,weatherlink.com 1.10,2013-02-06 01:54:00,
2013-02-05 21:09:00,62.9,57.0,30.04,SSW,211,0.0,1.0,82,0.00,,,0.00,weatherlink.com 1.10,2013-02-06 02:09:00,
2013-02-05 21:24:00,62.1,57.0,30.04,SSW,211,0.0,0.0,82,0.00,,,0.00,weatherlink.com 1.10,2013-02-06 02:24:00,
2013-02-05 21:39:00,61.7,57.0,30.04,SSW,211,0.0,0.0,83,0.00,,,0.00,weatherlink.com 1.10,2013-02-06 02:39:00,
2013-02-05 21:54:00,61.1,56.0,30.04,SSW,211,0.0,0.0,84,0.00,,,0.00,weatherlink.com 1.10,2013-02-06 02:54:00,
2013-02-05 22:09:00,60.5,56.0,30.04,SSW,211,0.0,0.0,85,0.00,,,0.00,weatherlink.com 1.10,2013-02-06 03:09:00,
2013-02-05 22:24:00,59.7,55.0,30.05,SSW,211,0.0,0.0,85,0.00,,,0.00,weatherlink.com 1.10,2013-02-06 03:24:00,
2013-02-05 22:39:00,59.5,55.0,30.05,SSW,211,0.0,0.0,86,0.00,,,0.00,weatherlink.com 1.10,2013-02-06 03:39:00,
2013-02-05 22:54:00,59.4,56.0,30.05,SSW,211,0.0,0.0,88,0.00,,,0.00,weatherlink.com 1.10,2013-02-06 03:54:00,
2013-02-05 23:09:00,59.0,56.0,30.06,SSW,211,0.0,0.0,88,0.00,,,0.00,weatherlink.com 1.10,2013-02-06 04:09:00,
2013-02-05 23:24:00,59.6,56.0,30.05,SSW,211,0.0,0.0,89,0.00,,,0.00,weatherlink.com 1.10,2013-02-06 04:24:00,
2013-02-05 23:39:00,60.1,57.0,30.05,SSW,210,0.0,0.0,89,0.00,,,0.00,weatherlink.com 1.10,2013-02-06 04:39:00,
2013-02-05 23:54:00,61.5,58.0,30.05,ENE,61,4.0,4.0,89,0.00,,,0.00,weatherlink.com 1.10,2013-02-06 04:54:00,